createdAt,value
2023-04-18T00:01:55.736Z,2.30
2023-04-18T00:04:24.138Z,2.40
2023-04-18T00:06:53.589Z,2.60
2023-04-18T00:09:21.778Z,1.97
2023-04-18T00:11:50.174Z,2.30
2023-04-18T00:14:19.138Z,2.10
2023-04-18T00:16:47.297Z,1.87
2023-04-18T00:19:15.790Z,1.93
2023-04-18T00:21:46.056Z,2.17
2023-04-18T00:24:15.677Z,2.00
2023-04-18T00:26:43.946Z,2.35
2023-04-18T00:29:11.919Z,2.13
2023-04-18T00:31:39.938Z,2.10
2023-04-18T00:34:08.016Z,2.00
2023-04-18T00:36:36.030Z,2.10
2023-04-18T00:39:04.275Z,2.10
2023-04-18T00:41:33.800Z,2.60
2023-04-18T00:44:01.817Z,2.50
2023-04-18T00:46:29.883Z,2.20
2023-04-18T00:48:58.109Z,2.07
2023-04-18T00:51:26.365Z,2.07
2023-04-18T00:53:55.073Z,2.20
2023-04-18T00:56:24.035Z,2.30
2023-04-18T00:58:53.504Z,2.27
2023-04-18T01:01:21.547Z,2.40
2023-04-18T01:03:49.656Z,2.30
2023-04-18T01:06:17.940Z,2.60
2023-04-18T01:08:46.726Z,2.10
2023-04-18T01:11:14.745Z,2.00
2023-04-18T01:13:42.685Z,2.17
2023-04-18T01:16:12.134Z,1.90
2023-04-18T01:18:40.407Z,2.43
2023-04-18T01:21:08.400Z,2.50
2023-04-18T01:23:36.799Z,2.20
2023-04-18T01:26:06.588Z,2.30
2023-04-18T01:28:38.123Z,3.00
2023-04-18T01:31:06.361Z,2.17
2023-04-18T01:33:34.563Z,2.43
2023-04-18T01:36:02.605Z,2.50
2023-04-18T01:38:33.850Z,2.50
2023-04-18T01:41:02.460Z,2.20
2023-04-18T01:43:31.979Z,2.80
2023-04-18T01:45:59.847Z,2.33
2023-04-18T01:48:27.845Z,2.40
2023-04-18T01:50:55.853Z,2.13
2023-04-18T01:53:25.707Z,2.37
2023-04-18T01:55:53.911Z,2.30
2023-04-18T01:58:23.795Z,2.37
2023-04-18T02:00:55.085Z,2.38
2023-04-18T02:03:23.297Z,2.60
2023-04-18T02:05:51.520Z,2.40
2023-04-18T02:08:19.464Z,2.30
2023-04-18T02:10:47.474Z,2.10
2023-04-18T02:13:15.694Z,2.27
2023-04-18T02:15:45.064Z,2.40
2023-04-18T02:18:14.551Z,2.20
2023-04-18T02:20:42.605Z,2.10
2023-04-18T02:23:10.816Z,2.07
2023-04-18T02:25:38.843Z,2.37
2023-04-18T02:28:06.852Z,2.43
2023-04-18T02:30:35.260Z,2.20
2023-04-18T02:33:03.358Z,2.60
2023-04-18T02:35:32.827Z,2.20
2023-04-18T02:38:00.869Z,2.40
2023-04-18T02:40:28.944Z,2.40
2023-04-18T02:42:56.830Z,2.40
2023-04-18T02:45:24.868Z,2.40
2023-04-18T02:47:56.562Z,2.60
2023-04-18T02:50:25.097Z,2.23
2023-04-18T02:52:54.759Z,2.30
2023-04-18T02:55:23.065Z,2.80
2023-04-18T02:57:51.104Z,2.23
2023-04-18T03:00:19.815Z,2.13
2023-04-18T03:02:49.649Z,2.40
2023-04-18T03:05:17.699Z,2.90
2023-04-18T03:07:45.750Z,2.43
2023-04-18T03:10:15.181Z,2.60
2023-04-18T03:12:43.283Z,2.50
2023-04-18T03:15:12.171Z,2.60
2023-04-18T03:17:40.845Z,2.70
2023-04-18T03:20:10.419Z,2.50
2023-04-18T03:22:40.930Z,2.30
2023-04-18T03:25:09.710Z,2.40
2023-04-18T03:27:39.009Z,2.43
2023-04-18T03:30:08.393Z,2.80
2023-04-18T03:32:36.583Z,2.70
2023-04-18T03:35:04.797Z,2.50
2023-04-18T03:37:32.894Z,2.60
2023-04-18T03:40:01.030Z,2.60
2023-04-18T03:42:28.932Z,2.63
2023-04-18T03:44:58.543Z,2.60
2023-04-18T03:47:26.474Z,2.45
2023-04-18T03:49:56.927Z,2.50
2023-04-18T03:54:52.801Z,2.23
2023-04-18T03:57:20.768Z,2.20
2023-04-18T03:59:49.020Z,2.40
2023-04-18T04:02:18.441Z,2.63
2023-04-18T04:04:47.051Z,2.40
2023-04-18T04:07:15.340Z,2.47
2023-04-18T04:09:43.275Z,2.60
2023-04-18T04:12:11.173Z,2.53
2023-04-18T04:14:39.311Z,2.07
2023-04-18T04:17:07.320Z,2.20
2023-04-18T04:19:36.685Z,2.03
2023-04-18T04:22:04.917Z,2.00
2023-04-18T04:24:33.288Z,2.27
2023-04-18T04:27:01.590Z,2.07
2023-04-18T04:29:30.188Z,1.90
2023-04-18T04:31:59.340Z,2.10
2023-04-18T04:34:27.407Z,2.10
2023-04-18T04:36:57.407Z,3.87
2023-04-18T04:39:25.272Z,3.05
2023-04-18T04:41:53.559Z,1.97
2023-04-18T04:44:22.406Z,2.10
2023-04-18T04:46:50.702Z,2.33
2023-04-18T04:49:18.707Z,2.00
2023-04-18T04:51:46.771Z,2.10
2023-04-18T04:54:16.348Z,2.17
2023-04-18T04:56:44.612Z,2.17
2023-04-18T04:59:12.728Z,2.00
2023-04-18T05:01:43.489Z,2.10
2023-04-18T05:04:12.822Z,1.53
2023-04-18T05:06:41.510Z,1.65
2023-04-18T05:09:09.388Z,1.90
2023-04-18T05:11:38.755Z,2.00
2023-04-18T05:14:09.477Z,1.90
2023-04-18T05:16:37.689Z,2.17
2023-04-18T05:19:06.005Z,1.50
2023-04-18T05:21:34.193Z,1.83
2023-04-18T05:24:02.089Z,2.30
2023-04-18T05:26:30.021Z,1.60
2023-04-18T05:28:59.612Z,1.83
2023-04-18T05:31:27.744Z,2.03
2023-04-18T05:33:58.505Z,1.70
2023-04-18T05:36:26.958Z,1.60
2023-04-18T05:38:54.873Z,2.00
2023-04-18T05:41:23.059Z,2.03
2023-04-18T05:44:04.274Z,1.73
2023-04-18T05:46:34.668Z,1.73
2023-04-18T05:49:03.619Z,1.70
2023-04-18T05:51:32.038Z,1.63
2023-04-18T05:53:59.989Z,2.10
2023-04-18T05:56:28.259Z,1.43
2023-04-18T05:58:56.248Z,1.60
2023-04-18T06:01:24.270Z,1.70
2023-04-18T06:03:53.962Z,1.57
2023-04-18T06:06:22.476Z,1.50
2023-04-18T06:08:50.453Z,1.60
2023-04-18T06:11:20.261Z,1.50
2023-04-18T06:13:48.703Z,1.40
2023-04-18T06:16:16.867Z,1.40
2023-04-18T06:18:44.897Z,1.40
2023-04-18T06:21:14.484Z,1.47
2023-04-18T06:23:42.451Z,1.50
2023-04-18T06:26:10.778Z,1.40
2023-04-18T06:28:38.799Z,1.40
2023-04-18T06:31:06.930Z,1.67
2023-04-18T06:33:35.669Z,1.33
2023-04-18T06:36:03.700Z,1.70
2023-04-18T06:38:33.639Z,1.27
2023-04-18T06:41:01.865Z,1.33
2023-04-18T06:43:29.809Z,1.23
2023-04-18T06:45:57.889Z,1.70
2023-04-18T06:48:26.181Z,1.50
2023-04-18T06:50:54.156Z,1.30
2023-04-18T06:53:22.447Z,1.60
2023-04-18T06:55:52.057Z,1.33
2023-04-18T06:58:20.012Z,1.25
2023-04-18T07:00:52.030Z,1.60
2023-04-18T07:03:20.606Z,1.30
2023-04-18T07:05:50.387Z,1.40
2023-04-18T07:08:18.417Z,1.30
2023-04-18T07:10:46.487Z,1.50
2023-04-18T07:13:16.022Z,1.40
2023-04-18T07:15:44.066Z,1.50
2023-04-18T07:18:16.084Z,1.23
2023-04-18T07:20:46.164Z,1.33
2023-04-18T07:23:14.287Z,1.60
2023-04-18T07:25:42.224Z,1.23
2023-04-18T07:28:10.218Z,1.60
2023-04-18T07:30:39.966Z,1.47
2023-04-18T07:33:07.852Z,1.90
2023-04-18T07:35:37.092Z,2.50
2023-04-18T07:38:05.152Z,1.70
2023-04-18T07:40:33.018Z,1.27
2023-04-18T07:43:01.055Z,1.57
2023-04-18T07:45:29.136Z,1.10
2023-04-18T07:47:58.490Z,1.43
2023-04-18T07:50:26.953Z,1.33
2023-04-18T07:52:54.965Z,1.67
2023-04-18T07:55:22.958Z,1.67
2023-04-18T07:57:51.085Z,1.30
2023-04-18T08:00:19.914Z,1.10
2023-04-18T08:02:48.037Z,1.40
2023-04-18T08:05:17.709Z,1.20
2023-04-18T08:07:45.753Z,1.15
2023-04-18T08:10:13.722Z,1.10
2023-04-18T08:12:41.860Z,1.20
2023-04-18T08:15:10.822Z,1.00
2023-04-18T08:17:38.996Z,1.00
2023-04-18T08:20:08.103Z,0.93
2023-04-18T08:22:46.832Z,0.90
2023-04-18T08:25:25.514Z,1.77
2023-04-18T08:27:53.491Z,0.83
2023-04-18T08:30:21.502Z,1.17
2023-04-18T08:32:49.670Z,0.90
2023-04-18T08:35:17.741Z,0.83
2023-04-18T08:37:47.399Z,0.90
2023-04-18T08:40:15.662Z,0.80
2023-04-18T08:42:45.295Z,0.80
2023-04-18T08:45:15.053Z,1.00
2023-04-18T08:47:43.533Z,0.90
2023-04-18T08:50:12.816Z,0.80
2023-04-18T08:52:41.445Z,0.70
2023-04-18T08:55:11.480Z,0.63
2023-04-18T08:57:40.004Z,1.17
2023-04-18T09:00:11.457Z,0.70
2023-04-18T09:02:43.843Z,1.00
2023-04-18T09:05:15.229Z,0.60
2023-04-18T09:07:43.686Z,1.27
2023-04-18T09:10:15.648Z,0.80
2023-04-18T09:12:50.309Z,0.77
2023-04-18T09:15:22.727Z,0.90
2023-04-18T09:17:53.408Z,0.60
2023-04-18T09:20:35.991Z,0.70
2023-04-18T09:23:06.026Z,0.70
2023-04-18T09:25:40.807Z,0.60
2023-04-18T09:28:24.469Z,0.77
2023-04-18T09:30:55.903Z,1.00
2023-04-18T09:33:29.685Z,1.00
2023-04-18T09:36:00.402Z,0.80
2023-04-18T09:38:41.382Z,0.70
2023-04-18T09:41:11.554Z,0.70
2023-04-18T09:43:40.086Z,0.75
2023-04-18T09:46:09.284Z,0.70
2023-04-18T09:48:37.752Z,0.77
2023-04-18T09:51:08.154Z,0.60
2023-04-18T09:56:11.800Z,0.70
2023-04-18T09:58:43.444Z,0.60
2023-04-18T10:01:13.379Z,0.55
2023-04-18T10:03:48.747Z,0.50
2023-04-18T10:06:17.776Z,0.60
2023-04-18T10:08:46.809Z,0.60
2023-04-18T10:11:18.016Z,0.50
2023-04-18T10:13:50.863Z,0.50
2023-04-18T10:16:20.506Z,0.70
2023-04-18T10:18:50.777Z,0.60
2023-04-18T10:21:18.843Z,0.60
2023-04-18T10:23:49.254Z,0.50
2023-04-18T10:28:54.646Z,0.40
2023-04-18T10:31:23.979Z,0.47
2023-04-18T10:34:03.695Z,0.90
2023-04-18T10:36:33.140Z,0.57
2023-04-18T10:39:03.225Z,0.70
2023-04-18T10:41:33.742Z,0.43
2023-04-18T10:44:15.996Z,0.53
2023-04-18T10:47:05.094Z,0.30
2023-04-18T10:49:33.366Z,0.70
2023-04-18T10:52:02.933Z,0.50
2023-04-18T10:54:35.884Z,0.40
2023-04-18T10:57:07.679Z,0.50
2023-04-18T10:59:39.532Z,0.70
2023-04-18T11:02:20.370Z,0.80
2023-04-18T11:04:51.183Z,0.67
2023-04-18T11:07:19.472Z,0.50
2023-04-18T11:09:54.737Z,0.40
2023-04-18T11:12:25.078Z,0.50
2023-04-18T11:14:54.333Z,0.37
2023-04-18T11:17:24.428Z,0.50
2023-04-18T11:20:03.008Z,0.38
2023-04-18T11:22:31.369Z,0.40
2023-04-18T11:25:00.219Z,0.50
2023-04-18T11:27:30.943Z,0.57
2023-04-18T11:29:58.925Z,0.40
2023-04-18T11:32:27.093Z,0.40
2023-04-18T11:34:56.787Z,0.50
2023-04-18T11:37:24.880Z,0.30
2023-04-18T11:39:54.239Z,0.40
2023-04-18T11:42:29.658Z,0.30
2023-04-18T11:44:57.773Z,0.50
2023-04-18T11:47:27.086Z,0.40
2023-04-18T11:49:59.645Z,0.40
2023-04-18T11:52:28.941Z,0.47
2023-04-18T11:54:57.863Z,0.30
2023-04-18T11:57:27.850Z,0.63
2023-04-18T11:59:59.810Z,0.47
2023-04-18T12:02:29.520Z,0.50
2023-04-18T12:05:00.162Z,0.30
2023-04-18T12:07:37.611Z,0.40
2023-04-18T12:10:08.009Z,0.40
2023-04-18T12:15:08.671Z,0.37
2023-04-18T12:17:39.394Z,0.30
2023-04-18T12:20:10.103Z,0.30
2023-04-18T12:22:43.104Z,0.30
2023-04-18T12:25:24.984Z,0.20
2023-04-18T12:27:59.217Z,0.30
2023-04-18T12:30:30.560Z,0.53
2023-04-18T12:33:00.077Z,0.50
2023-04-18T12:35:28.887Z,0.30
2023-04-18T12:37:58.398Z,0.43
2023-04-18T12:40:27.323Z,0.38
2023-04-18T12:42:55.879Z,0.53
2023-04-18T12:45:24.967Z,0.43
2023-04-18T12:47:54.488Z,0.77
2023-04-18T12:50:24.142Z,0.30
2023-04-18T12:52:53.876Z,0.40
2023-04-18T12:55:22.887Z,0.22
2023-04-18T12:57:54.512Z,0.20
2023-04-18T13:00:23.590Z,0.40
2023-04-18T13:02:52.834Z,0.30
2023-04-18T13:05:24.056Z,0.57
2023-04-18T13:07:58.630Z,0.20
2023-04-18T13:10:33.497Z,0.30
2023-04-18T13:13:01.561Z,0.20
2023-04-18T13:15:29.597Z,0.20
2023-04-18T13:17:57.815Z,0.30
2023-04-18T13:20:27.240Z,0.30
2023-04-18T13:22:55.340Z,0.30
2023-04-18T13:25:23.771Z,0.20
2023-04-18T13:27:51.990Z,0.23
2023-04-18T13:30:20.328Z,0.30
2023-04-18T13:32:48.668Z,0.20
2023-04-18T13:35:16.675Z,0.30
2023-04-18T13:37:46.323Z,0.10
2023-04-18T13:40:14.987Z,0.30
2023-04-18T13:42:42.989Z,0.20
2023-04-18T13:45:11.637Z,0.30
2023-04-18T13:47:39.684Z,0.20
2023-04-18T13:50:09.045Z,0.27
2023-04-18T13:52:36.972Z,0.20
2023-04-18T13:55:07.697Z,0.20
2023-04-18T13:57:37.383Z,0.27
2023-04-18T14:00:07.409Z,0.30
2023-04-18T14:02:35.485Z,0.50
2023-04-18T14:05:03.715Z,0.20
2023-04-18T14:07:31.936Z,0.20
2023-04-18T14:10:00.077Z,0.20
2023-04-18T14:12:29.418Z,0.30
2023-04-18T14:15:02.396Z,0.30
2023-04-18T14:17:31.126Z,0.33
2023-04-18T14:19:59.249Z,0.27
2023-04-18T14:22:27.298Z,0.30
2023-04-18T14:24:56.215Z,0.50
2023-04-18T14:27:26.118Z,0.30
2023-04-18T14:29:55.754Z,0.35
2023-04-18T14:32:23.768Z,0.20
2023-04-18T14:34:52.561Z,0.40
2023-04-18T14:37:21.388Z,0.30
2023-04-18T14:39:49.356Z,0.30
2023-04-18T14:42:17.987Z,0.33
2023-04-18T14:44:46.104Z,0.40
2023-04-18T14:47:15.840Z,0.23
2023-04-18T14:49:43.809Z,0.20
2023-04-18T14:52:11.876Z,0.23
2023-04-18T14:54:39.761Z,0.50
2023-04-18T14:57:08.658Z,0.20
2023-04-18T14:59:36.722Z,0.20
2023-04-18T15:02:04.915Z,0.40
2023-04-18T15:04:34.694Z,0.30
2023-04-18T15:07:02.850Z,0.20
2023-04-18T15:09:36.486Z,0.20
2023-04-18T15:12:04.661Z,0.40
2023-04-18T15:14:32.965Z,0.40
2023-04-18T15:17:01.139Z,0.63
2023-04-18T15:19:30.899Z,0.23
2023-04-18T15:22:00.260Z,0.40
2023-04-18T15:24:28.443Z,0.60
2023-04-18T15:26:57.203Z,0.20
2023-04-18T15:29:25.314Z,0.20
2023-04-18T15:31:53.312Z,0.30
2023-04-18T15:34:21.605Z,0.20
2023-04-18T15:36:49.873Z,0.27
2023-04-18T15:39:22.111Z,0.30
2023-04-18T15:41:53.835Z,0.50
2023-04-18T15:44:21.936Z,0.50
2023-04-18T15:46:50.168Z,0.20
2023-04-18T15:49:18.351Z,0.30
2023-04-18T15:51:46.258Z,0.30
2023-04-18T15:54:14.516Z,0.40
2023-04-18T15:56:44.813Z,0.50
2023-04-18T15:59:13.182Z,0.77
2023-04-18T16:01:41.133Z,0.40
2023-04-18T16:04:09.769Z,0.23
2023-04-18T16:06:37.650Z,0.30
2023-04-18T16:09:06.860Z,0.50
2023-04-18T16:11:35.308Z,0.20
2023-04-18T16:14:04.696Z,0.30
2023-04-18T16:16:34.351Z,0.50
2023-04-18T16:19:02.704Z,0.28
2023-04-18T16:21:30.650Z,0.30
2023-04-18T16:23:58.565Z,0.20
2023-04-18T16:26:27.039Z,0.20
2023-04-18T16:28:54.947Z,0.60
2023-04-18T16:31:24.479Z,0.40
2023-04-18T16:33:53.032Z,0.20
2023-04-18T16:36:21.034Z,0.20
2023-04-18T16:38:49.196Z,0.30
2023-04-18T16:41:17.325Z,0.20
2023-04-18T16:43:45.277Z,0.50
2023-04-18T16:46:13.857Z,0.50
2023-04-18T16:48:45.077Z,0.17
2023-04-18T16:51:13.335Z,0.40
2023-04-18T16:53:41.340Z,0.30
2023-04-18T16:56:09.383Z,0.30
2023-04-18T16:58:37.330Z,0.40
2023-04-18T17:01:08.078Z,0.20
2023-04-18T17:03:36.691Z,0.30
2023-04-18T17:06:07.005Z,0.30
2023-04-18T17:08:35.920Z,0.20
2023-04-18T17:11:04.166Z,0.57
2023-04-18T17:13:32.488Z,0.33
2023-04-18T17:16:00.738Z,0.27
2023-04-18T17:18:29.522Z,0.40
2023-04-18T17:20:57.636Z,0.60
2023-04-18T17:23:27.044Z,0.20
2023-04-18T17:25:55.203Z,0.37
2023-04-18T17:28:25.031Z,0.30
2023-04-18T17:30:53.151Z,0.32
2023-04-18T17:33:21.460Z,0.40
2023-04-18T17:35:50.371Z,0.40
2023-04-18T17:38:18.440Z,0.40
2023-04-18T17:40:49.747Z,0.20
2023-04-18T17:43:17.694Z,0.30
2023-04-18T17:45:45.663Z,0.20
2023-04-18T17:48:13.827Z,0.30
2023-04-18T17:50:42.443Z,0.30
2023-04-18T17:53:12.372Z,0.70
2023-04-18T17:55:41.344Z,0.32
2023-04-18T17:58:10.717Z,0.33
2023-04-18T18:00:38.721Z,0.40
2023-04-18T18:03:08.909Z,1.57
2023-04-18T18:05:37.004Z,1.05
2023-04-18T18:08:05.200Z,0.40
2023-04-18T18:10:33.833Z,0.60
2023-04-18T18:13:01.841Z,0.30
2023-04-18T18:15:31.404Z,0.53
2023-04-18T18:17:59.857Z,0.45
2023-04-18T18:20:28.030Z,0.50
2023-04-18T18:23:00.068Z,0.37
2023-04-18T18:25:32.890Z,0.40
2023-04-18T18:28:02.163Z,0.50
2023-04-18T18:30:31.802Z,0.40
2023-04-18T18:32:59.823Z,0.30
2023-04-18T18:35:27.937Z,0.30
2023-04-18T18:37:56.122Z,0.40
2023-04-18T18:40:24.431Z,0.30
2023-04-18T18:42:54.638Z,0.67
2023-04-18T18:45:22.717Z,0.35
2023-04-18T18:47:52.271Z,0.40
2023-04-18T18:50:20.334Z,0.57
2023-04-18T18:52:48.417Z,0.40
2023-04-18T18:55:16.729Z,0.30
2023-04-18T18:57:44.704Z,0.30
2023-04-18T19:00:13.901Z,0.40
2023-04-18T19:02:42.121Z,0.23
2023-04-18T19:05:12.871Z,0.50
2023-04-18T19:07:42.401Z,0.30
2023-04-18T19:10:12.088Z,0.70
2023-04-18T19:12:39.993Z,0.30
2023-04-18T19:15:09.181Z,0.50
2023-04-18T19:17:37.358Z,0.40
2023-04-18T19:20:05.961Z,0.40
2023-04-18T19:22:35.363Z,0.67
2023-04-18T19:25:04.063Z,0.40
2023-04-18T19:27:32.195Z,0.40
2023-04-18T19:30:00.183Z,0.40
2023-04-18T19:32:28.207Z,0.33
2023-04-18T19:34:56.368Z,0.40
2023-04-18T19:37:24.374Z,0.40
2023-04-18T19:39:53.667Z,0.40
2023-04-18T19:42:21.650Z,0.37
2023-04-18T19:44:49.728Z,0.70
2023-04-18T19:47:17.812Z,0.50
2023-04-18T19:49:45.716Z,0.40
2023-04-18T19:52:13.756Z,0.40
2023-04-18T19:54:41.875Z,0.50
2023-04-18T19:57:11.206Z,0.70
2023-04-18T19:59:39.186Z,0.50
2023-04-18T20:02:07.559Z,0.60
2023-04-18T20:04:36.768Z,0.50
2023-04-18T20:07:05.603Z,0.40
2023-04-18T20:09:33.660Z,0.50
2023-04-18T20:12:02.105Z,0.60
2023-04-18T20:14:31.650Z,0.60
2023-04-18T20:16:59.625Z,0.40
2023-04-18T20:19:29.794Z,0.40
2023-04-18T20:21:58.025Z,0.30
2023-04-18T20:24:28.385Z,0.60
2023-04-18T20:29:25.388Z,0.50
2023-04-18T20:31:54.914Z,0.30
2023-04-18T20:34:23.005Z,0.40
2023-04-18T20:36:52.485Z,0.73
2023-04-18T20:39:21.125Z,0.50
2023-04-18T20:41:51.459Z,0.60
2023-04-18T20:46:49.903Z,0.57
2023-04-18T20:49:19.235Z,0.30
2023-04-18T20:51:47.402Z,0.50
2023-04-18T20:54:16.002Z,0.40
2023-04-18T20:56:44.251Z,0.60
2023-04-18T20:59:12.387Z,0.73
2023-04-18T21:01:41.214Z,0.60
2023-04-18T21:04:09.524Z,0.43
2023-04-18T21:06:39.054Z,0.57
2023-04-18T21:09:07.504Z,0.50
2023-04-18T21:11:35.707Z,0.40
2023-04-18T21:14:06.804Z,0.50
2023-04-18T21:16:36.026Z,0.50
2023-04-18T21:19:03.989Z,0.63
2023-04-18T21:21:32.045Z,0.50
2023-04-18T21:24:01.895Z,0.50
2023-04-18T21:26:29.987Z,0.73
2023-04-18T21:28:59.637Z,0.63
2023-04-18T21:31:29.810Z,0.60
2023-04-18T21:33:59.850Z,0.50
2023-04-18T21:36:28.968Z,0.63
2023-04-18T21:38:58.189Z,0.47
2023-04-18T21:41:30.613Z,0.60
2023-04-18T21:43:58.476Z,0.60
2023-04-18T21:46:26.600Z,0.60
2023-04-18T21:48:54.861Z,0.60
2023-04-18T21:51:22.803Z,0.50
2023-04-18T21:53:50.921Z,0.60
2023-04-18T21:56:21.642Z,0.53
2023-04-18T21:58:50.986Z,0.57
2023-04-18T22:01:18.969Z,0.60
2023-04-18T22:03:47.231Z,0.60
2023-04-18T22:06:15.276Z,0.70
2023-04-18T22:08:43.249Z,0.60
2023-04-18T22:11:13.696Z,0.57
2023-04-18T22:16:14.214Z,0.70
2023-04-18T22:18:42.152Z,0.68
2023-04-18T22:21:10.758Z,0.57
2023-04-18T22:23:38.930Z,0.77
2023-04-18T22:26:07.114Z,0.63
2023-04-18T22:28:35.212Z,0.50
2023-04-18T22:31:03.376Z,0.83
2023-04-18T22:33:32.792Z,0.50
2023-04-18T22:36:00.842Z,0.40
2023-04-18T22:38:28.909Z,0.50
2023-04-18T22:40:56.898Z,0.53
2023-04-18T22:43:25.019Z,0.60
2023-04-18T22:45:53.177Z,0.70
2023-04-18T22:48:21.524Z,0.63
2023-04-18T22:50:50.845Z,0.50
2023-04-18T22:53:18.932Z,0.63
2023-04-18T22:55:47.133Z,0.60
2023-04-18T22:58:15.188Z,0.70
2023-04-18T23:00:43.684Z,0.63
2023-04-18T23:03:12.080Z,0.50
2023-04-18T23:05:40.197Z,0.70
2023-04-18T23:08:09.770Z,0.60
2023-04-18T23:10:37.776Z,0.60
2023-04-18T23:13:05.806Z,0.60
2023-04-18T23:15:33.916Z,0.57
2023-04-18T23:18:01.924Z,0.50
2023-04-18T23:20:29.801Z,0.60
2023-04-18T23:22:57.929Z,0.70
2023-04-18T23:25:27.375Z,0.80
2023-04-18T23:27:55.361Z,0.93
2023-04-18T23:30:23.537Z,0.63
2023-04-18T23:32:52.810Z,0.60
2023-04-18T23:35:21.045Z,0.60
2023-04-18T23:37:50.327Z,0.60
2023-04-18T23:40:18.359Z,0.70
2023-04-18T23:42:47.800Z,0.50
2023-04-18T23:45:16.072Z,0.70
2023-04-18T23:47:44.282Z,0.73
2023-04-18T23:50:12.824Z,0.70
2023-04-18T23:52:41.125Z,0.87
2023-04-18T23:55:09.952Z,0.73
2023-04-18T23:57:37.951Z,0.80
